createdAt,value
2019-03-22T00:00:13.226Z,97.50
2019-03-22T00:02:41.515Z,97.40
2019-03-22T00:05:09.882Z,97.60
2019-03-22T00:07:38.345Z,97.70
2019-03-22T00:10:06.701Z,97.70
2019-03-22T00:12:35.046Z,98.00
2019-03-22T00:15:05.464Z,97.80
2019-03-22T00:17:33.865Z,97.80
2019-03-22T00:20:02.281Z,97.80
2019-03-22T00:22:30.751Z,97.90
2019-03-22T00:24:59.101Z,97.80
2019-03-22T00:27:28.078Z,97.80
2019-03-22T00:29:56.557Z,98.30
2019-03-22T00:32:25.090Z,98.30
2019-03-22T00:34:53.408Z,98.60
2019-03-22T00:37:21.814Z,98.40
2019-03-22T00:39:50.406Z,98.50
2019-03-22T00:42:18.816Z,98.50
2019-03-22T00:44:50.162Z,98.40
2019-03-22T00:47:18.492Z,98.30
2019-03-22T00:49:47.114Z,98.20
2019-03-22T00:52:15.511Z,98.00
2019-03-22T00:54:43.920Z,98.10
2019-03-22T00:57:12.277Z,98.20
2019-03-22T00:59:40.735Z,98.00
2019-03-22T01:02:09.104Z,98.40
2019-03-22T01:04:37.561Z,98.40
2019-03-22T01:07:05.946Z,98.30
2019-03-22T01:09:34.379Z,98.90
2019-03-22T01:12:02.687Z,99.10
2019-03-22T01:14:31.062Z,98.90
2019-03-22T01:16:59.354Z,98.90
2019-03-22T01:19:27.746Z,99.20
2019-03-22T01:21:58.763Z,98.80
2019-03-22T01:24:27.229Z,98.80
2019-03-22T01:26:55.604Z,99.10
2019-03-22T01:29:24.954Z,99.10
2019-03-22T01:31:53.405Z,99.10
2019-03-22T01:34:21.853Z,99.20
2019-03-22T01:36:50.239Z,99.00
2019-03-22T01:39:18.661Z,99.10
2019-03-22T01:41:47.089Z,99.00
2019-03-22T01:44:15.399Z,99.00
2019-03-22T01:46:44.033Z,98.80
2019-03-22T01:49:12.415Z,98.80
2019-03-22T01:51:40.867Z,99.10
2019-03-22T01:54:09.266Z,99.10
2019-03-22T01:56:37.694Z,99.20
2019-03-22T01:59:06.085Z,99.20
2019-03-22T02:01:34.585Z,98.90
2019-03-22T02:04:03.039Z,99.00
2019-03-22T02:06:31.379Z,99.20
2019-03-22T02:08:59.846Z,99.10
2019-03-22T02:11:28.225Z,99.10
2019-03-22T02:13:56.540Z,99.10
2019-03-22T02:16:24.855Z,99.20
2019-03-22T02:18:53.269Z,99.30
2019-03-22T02:21:21.600Z,99.40
2019-03-22T02:23:52.089Z,99.40
2019-03-22T02:26:22.852Z,99.30
2019-03-22T02:28:51.260Z,99.00
2019-03-22T02:31:19.722Z,98.90
2019-03-22T02:33:48.318Z,98.90
2019-03-22T02:36:18.367Z,98.50
2019-03-22T02:38:46.753Z,98.80
2019-03-22T02:41:15.155Z,98.70
2019-03-22T02:43:43.539Z,98.90
2019-03-22T02:46:12.031Z,99.10
2019-03-22T02:48:41.002Z,99.00
2019-03-22T02:51:09.451Z,99.40
2019-03-22T02:53:37.810Z,99.90
2019-03-22T02:56:06.451Z,99.90
2019-03-22T02:58:34.966Z,99.70
2019-03-22T03:01:03.442Z,99.40
2019-03-22T03:03:31.835Z,99.40
2019-03-22T03:06:00.199Z,99.40
2019-03-22T03:08:30.218Z,99.40
2019-03-22T03:10:58.613Z,99.40
2019-03-22T03:13:27.052Z,99.20
2019-03-22T03:15:55.410Z,99.10
2019-03-22T03:18:23.838Z,99.20
2019-03-22T03:20:52.180Z,99.10
2019-03-22T03:23:20.562Z,99.30
2019-03-22T03:25:48.940Z,99.20
2019-03-22T03:28:18.054Z,99.10
2019-03-22T03:30:46.415Z,99.30
2019-03-22T03:33:14.853Z,99.50
2019-03-22T03:35:43.320Z,99.50
2019-03-22T03:38:11.683Z,99.90
2019-03-22T03:40:40.143Z,99.30
2019-03-22T03:43:08.498Z,99.20
2019-03-22T03:45:37.145Z,99.00
2019-03-22T03:48:10.076Z,99.10
2019-03-22T03:50:39.145Z,99.20
2019-03-22T03:53:07.516Z,98.90
2019-03-22T03:55:36.000Z,98.80
2019-03-22T03:58:04.718Z,98.90
2019-03-22T04:00:33.159Z,99.00
2019-03-22T04:03:01.543Z,98.90
2019-03-22T04:05:29.913Z,98.80
2019-03-22T04:07:59.022Z,98.80
2019-03-22T04:10:27.461Z,98.70
2019-03-22T04:12:56.344Z,98.40
2019-03-22T04:15:24.853Z,98.00
2019-03-22T04:17:53.317Z,98.20
2019-03-22T04:20:21.754Z,98.60
2019-03-22T04:22:50.124Z,99.00
2019-03-22T04:25:18.588Z,99.10
2019-03-22T04:27:46.953Z,99.10
2019-03-22T04:30:15.371Z,99.00
2019-03-22T04:32:43.815Z,99.10
2019-03-22T04:35:12.256Z,99.10
2019-03-22T04:37:40.715Z,98.50
2019-03-22T04:40:26.154Z,98.40
2019-03-22T04:42:54.528Z,98.30
2019-03-22T04:45:23.364Z,98.50
2019-03-22T04:47:55.188Z,98.60
2019-03-22T04:50:23.587Z,98.40
2019-03-22T04:52:51.997Z,98.60
2019-03-22T04:55:20.745Z,99.00
2019-03-22T04:57:49.112Z,99.00
2019-03-22T05:00:17.617Z,98.70
2019-03-22T05:02:46.041Z,98.30
2019-03-22T05:05:14.407Z,98.30
2019-03-22T05:07:42.891Z,98.10
2019-03-22T05:10:13.029Z,98.40
2019-03-22T05:12:41.374Z,98.50
2019-03-22T05:15:10.211Z,98.50
2019-03-22T05:17:38.622Z,98.50
2019-03-22T05:20:07.140Z,99.80
2019-03-22T05:22:35.606Z,99.30
2019-03-22T05:25:03.987Z,99.10
2019-03-22T05:27:32.394Z,98.70
2019-03-22T05:30:00.798Z,98.30
2019-03-22T05:32:29.174Z,98.40
2019-03-22T05:34:57.598Z,97.90
2019-03-22T05:37:25.932Z,97.90
2019-03-22T05:39:54.399Z,98.30
2019-03-22T05:42:22.798Z,98.80
2019-03-22T05:44:51.187Z,98.50
2019-03-22T05:47:19.566Z,98.30
2019-03-22T05:49:50.786Z,98.30
2019-03-22T05:52:19.173Z,98.10
2019-03-22T05:54:47.659Z,98.10
2019-03-22T05:57:16.041Z,98.20
2019-03-22T05:59:44.414Z,98.20
2019-03-22T06:02:12.794Z,98.40
2019-03-22T06:04:41.295Z,98.30
2019-03-22T06:07:09.717Z,98.30
2019-03-22T06:09:38.185Z,98.40
2019-03-22T06:12:06.545Z,98.10
2019-03-22T06:14:34.843Z,98.00
2019-03-22T06:17:03.254Z,97.90
2019-03-22T06:19:31.686Z,98.10
2019-03-22T06:22:00.047Z,98.20
2019-03-22T06:24:28.434Z,98.30
2019-03-22T06:26:56.826Z,98.20
2019-03-22T06:29:25.337Z,98.30
2019-03-22T06:31:53.706Z,98.20
2019-03-22T06:34:22.084Z,97.90
2019-03-22T06:36:50.583Z,98.00
2019-03-22T06:39:19.043Z,97.90
2019-03-22T06:41:47.451Z,97.70
2019-03-22T06:44:15.860Z,97.20
2019-03-22T06:46:44.232Z,97.40
2019-03-22T06:49:12.571Z,97.50
2019-03-22T06:51:40.943Z,97.40
2019-03-22T06:54:09.425Z,97.20
2019-03-22T06:56:37.945Z,97.40
2019-03-22T06:59:06.333Z,97.20
2019-03-22T07:01:34.745Z,97.10
2019-03-22T07:04:03.197Z,96.80
2019-03-22T07:06:31.585Z,96.40
2019-03-22T07:08:59.941Z,96.70
2019-03-22T07:11:28.245Z,96.50
2019-03-22T07:13:56.613Z,95.80
2019-03-22T07:16:24.930Z,96.20
2019-03-22T07:18:53.348Z,94.80
2019-03-22T07:21:21.730Z,94.20
2019-03-22T07:23:50.116Z,94.40
2019-03-22T07:26:18.494Z,94.80
2019-03-22T07:28:46.859Z,93.30
2019-03-22T07:31:15.266Z,93.40
2019-03-22T07:33:43.630Z,93.60
2019-03-22T07:36:12.139Z,93.00
2019-03-22T07:38:40.694Z,92.60
2019-03-22T07:41:09.183Z,88.30
2019-03-22T07:43:37.493Z,85.20
2019-03-22T07:46:05.803Z,80.70
2019-03-22T07:48:34.259Z,78.80
2019-03-22T07:51:02.683Z,77.40
2019-03-22T07:53:31.893Z,77.40
2019-03-22T07:56:00.262Z,73.10
2019-03-22T07:58:28.641Z,72.60
2019-03-22T08:00:57.040Z,71.60
2019-03-22T08:03:25.421Z,70.10
2019-03-22T08:05:53.785Z,68.40
2019-03-22T08:08:22.242Z,67.80
2019-03-22T08:10:50.702Z,69.30
2019-03-22T08:13:19.105Z,67.20
2019-03-22T08:15:47.472Z,67.80
2019-03-22T08:18:15.840Z,67.80
2019-03-22T08:20:44.238Z,68.00
2019-03-22T08:23:19.993Z,66.30
2019-03-22T08:25:48.446Z,64.70
2019-03-22T08:28:16.877Z,66.60
2019-03-22T08:30:45.222Z,65.60
2019-03-22T08:33:13.675Z,65.10
2019-03-22T08:35:42.066Z,63.40
2019-03-22T08:38:10.438Z,61.10
2019-03-22T08:40:38.800Z,61.40
2019-03-22T08:43:07.137Z,61.70
2019-03-22T08:45:35.489Z,62.00
2019-03-22T08:48:03.971Z,60.10
2019-03-22T08:50:32.376Z,58.80
2019-03-22T08:53:00.698Z,57.70
2019-03-22T08:55:29.108Z,56.80
2019-03-22T08:57:57.546Z,56.90
2019-03-22T09:00:38.319Z,57.60
2019-03-22T09:02:56.146Z,57.00
2019-03-22T09:05:24.549Z,58.00
2019-03-22T09:07:52.930Z,57.30
2019-03-22T09:10:21.406Z,56.50
2019-03-22T09:12:49.794Z,59.00
2019-03-22T09:15:18.143Z,58.90
2019-03-22T09:17:46.542Z,58.60
2019-03-22T09:20:15.000Z,57.80
2019-03-22T09:22:43.354Z,58.30
2019-03-22T09:25:11.766Z,59.30
2019-03-22T09:27:40.191Z,58.70
2019-03-22T09:30:13.254Z,59.10
2019-03-22T09:32:41.620Z,59.20
2019-03-22T09:35:10.049Z,59.00
2019-03-22T09:37:38.413Z,60.30
2019-03-22T09:40:08.388Z,60.20
2019-03-22T09:42:37.050Z,59.70
2019-03-22T09:45:06.779Z,59.20
2019-03-22T09:47:35.212Z,58.60
2019-03-22T09:50:08.627Z,58.20
2019-03-22T09:52:37.123Z,58.60
2019-03-22T09:55:13.286Z,57.70
2019-03-22T09:57:35.705Z,58.20
2019-03-22T10:00:09.065Z,57.30
2019-03-22T10:02:37.528Z,55.60
2019-03-22T10:05:06.370Z,56.00
2019-03-22T10:07:34.792Z,55.80
2019-03-22T10:10:04.299Z,56.70
2019-03-22T10:12:32.665Z,56.70
2019-03-22T10:15:01.055Z,56.70
2019-03-22T10:17:29.512Z,58.10
2019-03-22T10:19:57.962Z,57.20
2019-03-22T10:22:26.325Z,56.40
2019-03-22T10:24:54.697Z,55.50
2019-03-22T10:27:23.074Z,52.40
2019-03-22T10:29:52.074Z,53.50
2019-03-22T10:32:23.612Z,54.10
2019-03-22T10:34:50.502Z,53.10
2019-03-22T10:37:18.931Z,51.60
2019-03-22T10:39:47.289Z,51.70
2019-03-22T10:42:15.708Z,51.10
2019-03-22T10:44:44.082Z,49.00
2019-03-22T10:47:12.435Z,47.40
2019-03-22T10:49:42.065Z,44.20
2019-03-22T10:52:10.819Z,41.60
2019-03-22T10:54:39.254Z,40.50
2019-03-22T10:57:07.642Z,39.70
2019-03-22T10:59:36.050Z,40.50
2019-03-22T11:02:07.570Z,38.90
2019-03-22T11:04:34.520Z,39.00
2019-03-22T11:07:02.915Z,38.80
2019-03-22T11:09:31.904Z,39.00
2019-03-22T11:12:00.300Z,38.50
2019-03-22T11:14:28.732Z,36.70
2019-03-22T11:16:57.134Z,39.00
2019-03-22T11:19:25.544Z,38.60
2019-03-22T11:21:53.944Z,36.60
2019-03-22T11:24:22.392Z,37.90
2019-03-22T11:26:50.866Z,38.50
2019-03-22T11:29:19.260Z,39.70
2019-03-22T11:31:47.805Z,39.90
2019-03-22T11:34:16.332Z,40.80
2019-03-22T11:36:44.709Z,42.10
2019-03-22T11:39:15.931Z,44.10
2019-03-22T11:41:43.377Z,45.20
2019-03-22T11:44:11.849Z,43.90
2019-03-22T11:46:43.021Z,45.50
2019-03-22T11:49:11.410Z,46.90
2019-03-22T11:51:40.347Z,48.00
2019-03-22T11:54:08.839Z,46.80
2019-03-22T11:56:37.199Z,46.80
2019-03-22T11:59:05.594Z,48.40
2019-03-22T12:01:33.950Z,47.90
2019-03-22T12:04:02.261Z,47.90
2019-03-22T12:06:30.728Z,48.50
2019-03-22T12:08:59.102Z,48.80
2019-03-22T12:11:27.574Z,48.40
2019-03-22T12:13:55.974Z,48.40
2019-03-22T12:16:25.064Z,48.70
2019-03-22T12:18:53.498Z,48.60
2019-03-22T12:21:21.999Z,49.60
2019-03-22T12:23:58.136Z,48.70
2019-03-22T12:26:26.507Z,47.10
2019-03-22T12:28:54.974Z,47.90
2019-03-22T12:31:24.422Z,47.00
2019-03-22T12:33:52.712Z,45.40
2019-03-22T12:36:21.280Z,47.00
2019-03-22T12:38:49.667Z,47.50
2019-03-22T12:41:18.049Z,46.40
2019-03-22T12:43:46.534Z,44.90
2019-03-22T12:46:14.917Z,43.40
2019-03-22T12:48:43.327Z,45.30
2019-03-22T12:51:11.716Z,44.10
2019-03-22T12:53:40.134Z,42.40
2019-03-22T12:56:08.538Z,41.30
2019-03-22T12:58:37.045Z,40.60
2019-03-22T13:01:05.432Z,40.40
2019-03-22T13:03:33.837Z,38.90
2019-03-22T13:06:05.484Z,36.70
2019-03-22T13:08:33.943Z,36.60
2019-03-22T13:11:02.340Z,35.00
2019-03-22T13:13:30.768Z,34.30
2019-03-22T13:15:59.186Z,34.40
2019-03-22T13:18:27.567Z,34.60
2019-03-22T13:20:56.037Z,33.80
2019-03-22T13:23:24.504Z,33.50
2019-03-22T13:25:52.981Z,32.80
2019-03-22T13:28:21.356Z,32.40
2019-03-22T13:30:49.750Z,31.90
2019-03-22T13:33:18.173Z,31.10
2019-03-22T13:35:46.577Z,31.90
2019-03-22T13:38:17.041Z,33.20
2019-03-22T13:40:46.277Z,31.60
2019-03-22T13:43:14.721Z,31.00
2019-03-22T13:45:43.117Z,32.80
2019-03-22T13:48:11.548Z,32.30
2019-03-22T13:50:40.173Z,31.20
2019-03-22T13:53:08.571Z,32.70
2019-03-22T13:55:36.984Z,31.80
2019-03-22T13:58:05.396Z,33.50
2019-03-22T14:00:33.830Z,33.00
2019-03-22T14:03:03.079Z,33.70
2019-03-22T14:05:31.824Z,34.20
2019-03-22T14:08:00.224Z,33.50
2019-03-22T14:10:32.552Z,33.20
2019-03-22T14:13:01.983Z,33.70
2019-03-22T14:15:30.390Z,34.60
2019-03-22T14:17:58.764Z,33.00
2019-03-22T14:20:27.184Z,34.50
2019-03-22T14:22:55.632Z,36.00
2019-03-22T14:25:24.934Z,37.70
2019-03-22T14:27:53.713Z,40.10
2019-03-22T14:30:22.089Z,41.60
2019-03-22T14:32:50.469Z,43.30
2019-03-22T14:35:18.905Z,45.20
2019-03-22T14:37:47.342Z,46.90
2019-03-22T14:40:15.961Z,45.50
2019-03-22T14:42:44.321Z,45.10
2019-03-22T14:45:12.771Z,44.00
2019-03-22T14:47:41.174Z,43.80
2019-03-22T14:50:09.617Z,44.50
2019-03-22T14:52:38.072Z,44.40
2019-03-22T14:55:06.528Z,45.30
2019-03-22T14:57:35.026Z,45.50
2019-03-22T15:00:05.274Z,45.50
2019-03-22T15:02:33.683Z,45.60
2019-03-22T15:05:03.031Z,45.40
2019-03-22T15:07:31.444Z,45.70
2019-03-22T15:09:59.832Z,46.10
2019-03-22T15:12:28.345Z,47.60
2019-03-22T15:14:58.399Z,49.10
2019-03-22T15:17:44.731Z,51.00
2019-03-22T15:20:15.721Z,52.10
2019-03-22T15:22:58.073Z,52.80
2019-03-22T15:25:37.582Z,53.00
2019-03-22T15:28:16.585Z,53.50
2019-03-22T15:31:02.849Z,53.90
2019-03-22T15:33:34.585Z,54.80
2019-03-22T15:36:22.634Z,55.30
2019-03-22T15:38:52.733Z,56.00
2019-03-22T15:41:21.133Z,56.80
2019-03-22T15:43:49.534Z,56.70
2019-03-22T15:46:17.934Z,54.20
2019-03-22T15:48:46.336Z,50.20
2019-03-22T15:51:14.714Z,49.80
2019-03-22T15:53:43.150Z,50.40
2019-03-22T15:56:11.544Z,49.70
2019-03-22T15:58:39.990Z,48.40
2019-03-22T16:01:08.372Z,47.40
2019-03-22T16:03:44.107Z,48.60
2019-03-22T16:06:06.862Z,48.90
2019-03-22T16:08:35.256Z,49.40
2019-03-22T16:11:04.230Z,48.80
2019-03-22T16:13:32.666Z,49.10
2019-03-22T16:16:01.102Z,49.90
2019-03-22T16:18:29.499Z,50.20
2019-03-22T16:21:00.162Z,51.40
2019-03-22T16:23:28.044Z,51.40
2019-03-22T16:25:56.420Z,51.00
2019-03-22T16:28:24.921Z,50.90
2019-03-22T16:30:53.325Z,51.60
2019-03-22T16:33:22.219Z,52.70
2019-03-22T16:35:50.776Z,52.80
2019-03-22T16:38:19.147Z,52.80
2019-03-22T16:40:47.559Z,53.30
2019-03-22T16:43:15.929Z,54.40
2019-03-22T16:45:44.305Z,55.60
2019-03-22T16:48:12.705Z,56.20
2019-03-22T16:50:41.200Z,56.90
2019-03-22T16:53:09.591Z,58.10
2019-03-22T16:55:38.063Z,58.60
2019-03-22T16:58:06.402Z,59.80
2019-03-22T17:00:34.698Z,60.60
2019-03-22T17:03:03.066Z,62.10
2019-03-22T17:05:31.452Z,62.70
2019-03-22T17:07:59.781Z,63.00
2019-03-22T17:10:28.146Z,63.80
2019-03-22T17:13:15.976Z,64.30
2019-03-22T17:15:44.374Z,65.00
2019-03-22T17:18:12.739Z,65.80
2019-03-22T17:20:41.136Z,66.40
2019-03-22T17:23:10.138Z,66.90
2019-03-22T17:25:38.569Z,67.40
2019-03-22T17:28:06.934Z,68.30
2019-03-22T17:30:35.338Z,68.60
2019-03-22T17:33:03.785Z,68.90
2019-03-22T17:35:32.146Z,69.50
2019-03-22T17:38:00.838Z,70.40
2019-03-22T17:40:29.296Z,71.10
2019-03-22T17:42:57.797Z,72.50
2019-03-22T17:45:26.201Z,73.00
2019-03-22T17:50:21.154Z,74.00
2019-03-22T17:52:49.524Z,74.50
2019-03-22T17:55:17.907Z,75.20
2019-03-22T17:57:46.355Z,74.80
2019-03-22T18:00:18.607Z,75.20
2019-03-22T18:02:47.181Z,75.80
2019-03-22T18:05:15.549Z,76.10
2019-03-22T18:07:43.942Z,76.80
2019-03-22T18:10:12.473Z,76.90
2019-03-22T18:12:40.869Z,77.00
2019-03-22T18:15:11.511Z,77.20
2019-03-22T18:17:39.918Z,77.30
2019-03-22T18:20:10.708Z,77.90
2019-03-22T18:22:39.112Z,77.70
2019-03-22T18:25:09.498Z,77.80
2019-03-22T18:27:37.933Z,77.90
2019-03-22T18:30:09.090Z,78.40
2019-03-22T18:32:37.534Z,78.30
2019-03-22T18:35:06.847Z,78.70
2019-03-22T18:37:35.285Z,79.00
2019-03-22T18:40:05.021Z,79.60
2019-03-22T18:42:33.337Z,80.10
2019-03-22T18:45:01.771Z,80.50
2019-03-22T18:47:30.133Z,80.60
2019-03-22T18:49:58.519Z,80.80
2019-03-22T18:52:26.952Z,81.10
2019-03-22T18:54:55.337Z,81.50
2019-03-22T18:57:23.701Z,81.70
2019-03-22T18:59:52.010Z,81.90
2019-03-22T19:02:20.471Z,81.70
2019-03-22T19:04:48.873Z,82.20
2019-03-22T19:07:17.231Z,82.50
2019-03-22T19:09:46.186Z,82.60
2019-03-22T19:12:14.555Z,83.70
2019-03-22T19:14:43.010Z,83.20
2019-03-22T19:17:11.306Z,83.10
2019-03-22T19:19:39.610Z,83.10
2019-03-22T19:22:08.064Z,84.10
2019-03-22T19:24:36.402Z,83.80
2019-03-22T19:27:05.390Z,84.10
2019-03-22T19:29:33.786Z,84.40
2019-03-22T19:32:02.229Z,84.80
2019-03-22T19:34:30.619Z,84.90
2019-03-22T19:36:58.980Z,85.30
2019-03-22T19:39:27.299Z,85.70
2019-03-22T19:41:55.754Z,85.90
2019-03-22T19:44:24.137Z,86.30
2019-03-22T19:46:52.743Z,86.60
2019-03-22T19:49:21.189Z,86.80
2019-03-22T19:51:49.563Z,86.70
2019-03-22T19:54:17.953Z,87.00
2019-03-22T19:56:46.397Z,87.20
2019-03-22T19:59:14.816Z,87.20
2019-03-22T20:01:43.213Z,87.20
2019-03-22T20:04:11.606Z,86.90
2019-03-22T20:06:40.890Z,87.00
2019-03-22T20:09:10.159Z,87.40
2019-03-22T20:11:40.183Z,87.40
2019-03-22T20:14:08.684Z,87.60
2019-03-22T20:16:37.114Z,87.60
2019-03-22T20:19:05.536Z,87.90
2019-03-22T20:21:33.853Z,88.50
2019-03-22T20:24:02.246Z,88.40
2019-03-22T20:26:30.610Z,88.70
2019-03-22T20:28:59.174Z,88.90
2019-03-22T20:31:27.608Z,89.30
2019-03-22T20:33:55.999Z,89.30
2019-03-22T20:36:26.293Z,89.00
2019-03-22T20:38:54.387Z,89.60
2019-03-22T20:41:22.843Z,89.80
2019-03-22T20:43:51.221Z,90.20
2019-03-22T20:46:19.658Z,90.30
2019-03-22T20:48:48.041Z,90.40
2019-03-22T20:51:16.501Z,90.50
2019-03-22T20:53:44.937Z,90.60
2019-03-22T20:56:13.334Z,90.60
2019-03-22T20:58:43.734Z,90.70
2019-03-22T21:01:11.790Z,90.80
2019-03-22T21:03:40.174Z,91.00
2019-03-22T21:06:08.629Z,91.20
2019-03-22T21:08:37.237Z,91.10
2019-03-22T21:11:05.652Z,91.50
2019-03-22T21:13:34.127Z,91.70
2019-03-22T21:16:02.484Z,92.20
2019-03-22T21:18:30.802Z,91.90
2019-03-22T21:20:59.192Z,91.90
2019-03-22T21:23:36.052Z,92.00
2019-03-22T21:25:57.674Z,92.00
2019-03-22T21:28:25.987Z,92.10
2019-03-22T21:30:54.417Z,92.20
2019-03-22T21:33:22.791Z,92.60
2019-03-22T21:35:51.133Z,92.80
2019-03-22T21:38:19.517Z,93.00
2019-03-22T21:40:47.905Z,93.30
2019-03-22T21:43:16.309Z,93.40
2019-03-22T21:45:44.729Z,93.60
2019-03-22T21:48:13.187Z,93.70
2019-03-22T21:50:41.567Z,93.90
2019-03-22T21:53:09.995Z,94.00
2019-03-22T21:55:38.345Z,94.20
2019-03-22T21:58:06.676Z,94.10
2019-03-22T22:00:35.063Z,94.30
2019-03-22T22:03:03.443Z,94.40
2019-03-22T22:05:32.145Z,94.10
2019-03-22T22:08:00.621Z,94.20
2019-03-22T22:10:29.030Z,93.80
2019-03-22T22:12:57.406Z,93.80
2019-03-22T22:15:25.781Z,93.70
2019-03-22T22:17:54.198Z,93.60
2019-03-22T22:20:28.882Z,93.40
2019-03-22T22:22:52.686Z,93.30
2019-03-22T22:25:21.136Z,93.20
2019-03-22T22:27:49.680Z,92.90
2019-03-22T22:30:18.207Z,92.90
2019-03-22T22:32:46.629Z,93.00
2019-03-22T22:35:14.989Z,93.00
2019-03-22T22:37:43.278Z,92.90
2019-03-22T22:40:12.442Z,93.00
2019-03-22T22:42:40.857Z,93.00
2019-03-22T22:45:12.965Z,93.20
2019-03-22T22:47:41.403Z,93.30
2019-03-22T22:50:12.957Z,93.10
2019-03-22T22:52:41.324Z,93.00
2019-03-22T22:55:09.785Z,92.90
2019-03-22T22:57:38.279Z,92.90
2019-03-22T23:00:14.320Z,93.00
2019-03-22T23:02:43.633Z,93.00
2019-03-22T23:05:11.992Z,93.00
2019-03-22T23:07:40.595Z,93.00
2019-03-22T23:10:09.291Z,93.00
2019-03-22T23:12:38.362Z,93.00
2019-03-22T23:15:07.464Z,93.00
2019-03-22T23:17:36.057Z,93.00
2019-03-22T23:20:06.240Z,93.00
2019-03-22T23:22:34.690Z,93.00
2019-03-22T23:25:02.999Z,92.90
2019-03-22T23:27:32.025Z,93.00
2019-03-22T23:30:00.432Z,93.00
2019-03-22T23:32:28.768Z,93.00
2019-03-22T23:34:59.170Z,93.00
2019-03-22T23:37:27.961Z,92.90
2019-03-22T23:39:56.349Z,93.10
2019-03-22T23:42:24.717Z,93.00
2019-03-22T23:44:53.181Z,93.10
2019-03-22T23:47:21.533Z,93.20
2019-03-22T23:49:49.945Z,93.20
2019-03-22T23:52:18.325Z,93.20
2019-03-22T23:54:46.754Z,93.30
2019-03-22T23:57:15.131Z,93.40
2019-03-22T23:59:43.589Z,93.50
